Mexico V — XCKR — position and weather

sailwx.info

Track history (hours):
 
Tides and Currents Weather Stations Pressure Air Temp Water Temp Dewpoint Dewpoint Depression Visibility Wind Speed Wind Dir Waves Ship Positions

Mexico V

Last reported at 2017-Apr-28 02:19 UTC. Time now 2017-Apr-28 10:21 UTC.
Position N 20°31' W 086°57'.

Length 40 m; draft 1.5 m.

Type: Ship. MMSI: 345110005.

Date/timePositionNaut miles runAvg speedWind from/ knotsBaromVisibWave heightAir tempDewpointWater temp
2017-Apr-28 02:19N 20°31' W 086°57'0 0.1
2017-Apr-28 02:01N 20°31' W 086°57'2 4.1
2017-Apr-28 01:30N 20°32' W 086°58'1 1.0
2017-Apr-28 00:20N 20°33' W 086°60'310.2
2017-Apr-28 00:00N 20°31' W 086°57'2 4.8
2017-Apr-27 23:31N 20°32' W 086°59'2 1.4
2017-Apr-27 22:22N 20°34' W 086°60'411.1
2017-Apr-27 22:00N 20°31' W 086°57'0 0.0
2017-Apr-27 21:31N 20°31' W 086°57'1 1.9
2017-Apr-27 21:01N 20°30' W 086°58'3 5.8
2017-Apr-27 20:30N 20°32' W 087°00'2 1.9
2017-Apr-27 19:23N 20°34' W 087°00'511.8
2017-Apr-27 19:00N 20°31' W 086°57'0 0.3
2017-Apr-27 18:30N 20°31' W 086°57'0 0.0
2017-Apr-27 18:00N 20°31' W 086°57'0 0.4
2017-Apr-27 17:31N 20°31' W 086°57'0 0.1
2017-Apr-27 17:00N 20°31' W 086°57'4 7.3
2017-Apr-27 16:31N 20°34' W 086°59'0 0.3
2017-Apr-27 15:20N 20°34' W 086°60'411.8
2017-Apr-27 15:00N 20°31' W 086°57'3 6.3
2017-Apr-27 14:30N 20°33' W 086°59'0 0.1
2017-Apr-27 13:19N 20°33' W 086°59'311.0
2017-Apr-27 13:00N 20°31' W 086°57'0 0.0
2017-Apr-27 12:31N 20°31' W 086°57'0 0.0
2017-Apr-27 02:45N 20°31' W 086°57'2 9.3
2017-Apr-27 02:31N 20°33' W 086°58'1 1.2
2017-Apr-27 01:19N 20°33' W 086°60'310.8
2017-Apr-27 01:00N 20°31' W 086°57'3 5.2
2017-Apr-27 00:31N 20°33' W 086°59'2 1.5
2017-Apr-26 23:21N 20°34' W 086°60'413.0
2017-Apr-26 23:01N 20°31' W 086°57'2 3.9
2017-Apr-26 22:30N 20°32' W 086°58'2 1.5
2017-Apr-26 21:20N 20°33' W 086°60'411.5
2017-Apr-26 21:01N 20°31' W 086°57'3 6.0
2017-Apr-26 20:30N 20°33' W 086°59'1 0.9
2017-Apr-26 19:17N 20°32' W 086°59'2 8.8
2017-Apr-26 19:00N 20°31' W 086°57'4 7.5
2017-Apr-26 18:31N 20°34' W 086°60'1 0.5
2017-Apr-26 17:24N 20°34' W 087°00'410.6
2017-Apr-26 17:00N 20°31' W 086°57'0 0.0
2017-Apr-26 16:30N 20°31' W 086°57'0 0.1
2017-Apr-26 16:01N 20°31' W 086°57'4 8.2
2017-Apr-26 15:30N 20°34' W 086°60'0 0.1
2017-Apr-26 14:23N 20°34' W 087°00'4 4.7
2017-Apr-26 13:31N 20°31' W 086°57'0 0.0
2017-Apr-26 03:11N 20°31' W 086°57'0 1.6
2017-Apr-26 03:01N 20°31' W 086°57'4 2.2
2017-Apr-26 01:21N 20°34' W 086°60'411.2
2017-Apr-26 01:00N 20°31' W 086°57'0 0.4
2017-Apr-26 00:31N 20°31' W 086°57'0 0.0
2017-Apr-26 00:00N 20°31' W 086°57'0 0.4
2017-Apr-25 23:31N 20°31' W 086°57'0 0.0
2017-Apr-25 23:00N 20°31' W 086°57'2 4.9
2017-Apr-25 22:31N 20°33' W 086°59'1 1.1
2017-Apr-25 21:22N 20°34' W 086°60'410.2
2017-Apr-25 21:01N 20°31' W 086°57'3 6.7
2017-Apr-25 20:30N 20°33' W 086°59'0 0.4
2017-Apr-25 19:23N 20°33' W 086°60'410.2
2017-Apr-25 19:00N 20°31' W 086°57'4 7.8
2017-Apr-25 18:30N 20°34' W 086°60'0 0.4
2017-Apr-25 17:22N 20°33' W 086°60'410.1
2017-Apr-25 17:01N 20°31' W 086°57'0 0.0
2017-Apr-25 16:31N 20°31' W 086°57'2 4.1
2017-Apr-25 16:01N 20°32' W 086°59'2 1.1
2017-Apr-25 14:01N 20°30' W 086°57'0 0.0
2017-Apr-25 13:30N 20°30' W 086°57'0 0.7
2017-Apr-25 13:00N 20°31' W 086°57'0 0.0
2017-Apr-25 12:31N 20°31' W 086°57'0 0.0
2017-Apr-25 12:01N 20°31' W 086°57'0 0.0
2017-Apr-25 02:42N 20°31' W 086°57'1 6.9
2017-Apr-25 02:31N 20°32' W 086°58'1 1.0
2017-Apr-25 01:16N 20°33' W 086°59'2 9.1
2017-Apr-25 01:00N 20°31' W 086°57'1 3.0
2017-Apr-25 00:31N 20°32' W 086°58'2 1.3
2017-Apr-24 23:20N 20°33' W 086°59'3 9.2
2017-Apr-24 23:00N 20°31' W 086°57'3 6.3
2017-Apr-24 22:31N 20°33' W 086°60'0 0.2
2017-Apr-24 21:18N 20°33' W 086°59'310.1
2017-Apr-24 21:01N 20°31' W 086°57'0 0.2
2017-Apr-24 20:30N 20°31' W 086°57'0 0.6
2017-Apr-24 20:01N 20°31' W 086°57'2 4.3
2017-Apr-24 19:30N 20°32' W 086°59'1 0.8
2017-Apr-24 18:17N 20°33' W 086°60'311.8
2017-Apr-24 18:00N 20°31' W 086°57'4 7.8
2017-Apr-24 17:31N 20°34' W 086°60'0 0.4
2017-Apr-24 16:17N 20°33' W 086°60'312.2
2017-Apr-24 16:00N 20°31' W 086°57'2 1.3
2017-Apr-24 14:17N 20°32' W 086°59'2 0.2
2017-Apr-24 02:46N 20°31' W 086°57'2 9.3
2017-Apr-24 02:31N 20°32' W 086°59'2 1.7
2017-Apr-24 01:22N 20°34' W 086°60'411.6
2017-Apr-24 01:00N 20°31' W 086°57'2 4.1
2017-Apr-24 00:30N 20°32' W 086°59'1 0.9
2017-Apr-23 23:19N 20°33' W 086°60'3 9.9
2017-Apr-23 23:01N 20°31' W 086°57'1 2.2
2017-Apr-23 22:31N 20°31' W 086°58'2 1.7
2017-Apr-23 21:20N 20°33' W 086°59'3 9.4
2017-Apr-23 21:00N 20°31' W 086°57'0 0.3
2017-Apr-23 20:31N 20°31' W 086°57'0 0.2
2017-Apr-23 20:00N 20°31' W 086°57'4 7.6
2017-Apr-23 19:30N 20°33' W 087°00'1 0.8
2017-Apr-23 18:20N 20°33' W 086°59'3 9.0
2017-Apr-23 18:00N 20°31' W 086°57'4 7.5
2017-Apr-23 17:31N 20°33' W 087°00'0 0.4
2017-Apr-23 16:21N 20°33' W 086°59'3 9.6
2017-Apr-23 16:00N 20°31' W 086°57'4 8.2
2017-Apr-23 15:30N 20°34' W 086°60'4 2.8
2017-Apr-23 14:00N 20°31' W 086°57'0 0.0
2017-Apr-23 13:30N 20°31' W 086°57'0 0.0
2017-Apr-23 13:00N 20°31' W 086°57'0 0.0
2017-Apr-23 02:23N 20°31' W 086°57'0 0.0
2017-Apr-23 02:00N 20°31' W 086°57'4 7.4
2017-Apr-23 01:31N 20°34' W 086°59'0 0.3
2017-Apr-23 00:22N 20°34' W 086°60'410.4
2017-Apr-23 00:01N 20°31' W 086°57'3 6.6
2017-Apr-22 23:30N 20°33' W 086°59'0 0.1
2017-Apr-22 22:19N 20°33' W 086°59'310.2
2017-Apr-22 22:00N 20°31' W 086°57'0 0.0
2017-Apr-22 21:31N 20°31' W 086°57'0 0.3
2017-Apr-22 21:00N 20°31' W 086°57'3 6.6
2017-Apr-22 20:30N 20°33' W 086°59'1 0.8
2017-Apr-22 19:21N 20°34' W 087°00'412.7
2017-Apr-22 19:00N 20°31' W 086°57'4 7.2
2017-Apr-22 18:30N 20°34' W 086°59'1 1.0
2017-Apr-22 17:22N 20°34' W 087°00'512.7
2017-Apr-22 17:01N 20°31' W 086°57'3 5.6
2017-Apr-22 16:31N 20°33' W 086°59'0 0.3
2017-Apr-22 15:15N 20°33' W 086°59'312.5
2017-Apr-22 15:00N 20°31' W 086°57'1 2.6
2017-Apr-22 14:31N 20°32' W 086°58'2 1.9
2017-Apr-22 13:19N 20°33' W 086°60'411.8
2017-Apr-22 13:01N 20°31' W 086°57'0 0.0
2017-Apr-22 02:29N 20°31' W 086°57'0 0.1
2017-Apr-22 02:00N 20°31' W 086°57'3 5.4
2017-Apr-22 01:30N 20°33' W 086°59'1 0.7
2017-Apr-22 00:20N 20°33' W 086°60'310.6
2017-Apr-22 00:01N 20°31' W 086°57'2 4.6
2017-Apr-21 23:31N 20°32' W 086°59'1 0.7
2017-Apr-21 22:19N 20°33' W 086°59'3 9.9
2017-Apr-21 22:00N 20°31' W 086°57'3 5.6
2017-Apr-21 21:30N 20°33' W 086°59'0 0.3
2017-Apr-21 20:18N 20°33' W 086°59'310.9
2017-Apr-21 20:00N 20°31' W 086°57'4 7.1
2017-Apr-21 19:31N 20°33' W 086°60'0 0.2
2017-Apr-21 18:31N 20°33' W 086°60'020.5
2017-Apr-21 18:30N 20°33' W 086°59'1 2.8
2017-Apr-21 18:01N 20°32' W 086°58'2 1.3
2017-Apr-21 16:22N 20°33' W 086°60'410.3
2017-Apr-21 16:00N 20°31' W 086°57'4 8.8
2017-Apr-21 15:31N 20°34' W 087°00'1 0.8
2017-Apr-21 14:25N 20°35' W 087°00'5 5.6
2017-Apr-21 13:30N 20°31' W 086°57'0 0.0
2017-Apr-21 13:00N 20°31' W 086°57'0 0.0
2017-Apr-21 02:21N 20°31' W 086°57'0 0.1
2017-Apr-21 02:01N 20°31' W 086°57'1 2.0
2017-Apr-21 01:31N 20°32' W 086°58'2 2.1
2017-Apr-21 00:20N 20°33' W 086°60'310.0
2017-Apr-21 00:01N 20°31' W 086°57'1 1.7
2017-Apr-20 23:31N 20°31' W 086°58'2 1.8
2017-Apr-20 22:20N 20°33' W 086°59'3 9.1
2017-Apr-20 22:00N 20°31' W 086°57'0 0.0
2017-Apr-20 21:31N 20°31' W 086°57'0 0.1
2017-Apr-20 21:01N 20°31' W 086°57'2 3.5
2017-Apr-20 20:30N 20°32' W 086°58'4 3.2
2017-Apr-20 19:24N 20°35' W 087°01'513.5
2017-Apr-20 19:00N 20°31' W 086°57'3 6.1
2017-Apr-20 18:31N 20°33' W 086°59'2 1.3
2017-Apr-20 17:22N 20°34' W 087°00'411.9
2017-Apr-20 17:01N 20°31' W 086°57'3 6.3
2017-Apr-20 16:31N 20°33' W 086°59'2 1.4
2017-Apr-20 15:23N 20°34' W 087°00'512.4
2017-Apr-20 15:00N 20°31' W 086°57'2 3.1
2017-Apr-20 14:31N 20°32' W 086°58'4 3.6
2017-Apr-20 13:24N 20°35' W 087°01'614.4
2017-Apr-20 13:01N 20°31' W 086°57'0 0.1
2017-Apr-20 12:31N 20°31' W 086°57'0 0.0
2017-Apr-20 02:16N 20°31' W 086°57'0 0.0
2017-Apr-20 02:00N 20°31' W 086°57'3 5.1
2017-Apr-20 01:31N 20°32' W 086°59'1 0.9
2017-Apr-20 00:21N 20°33' W 086°60'410.5
2017-Apr-20 00:00N 20°31' W 086°57'2 3.4
2017-Apr-19 23:31N 20°32' W 086°58'2 1.4
2017-Apr-19 22:19N 20°33' W 086°60'310.8
2017-Apr-19 22:00N 20°31' W 086°57'0 0.1
2017-Apr-19 21:30N 20°31' W 086°57'0 0.4
2017-Apr-19 21:00N 20°31' W 086°57'2 4.9
2017-Apr-19 20:31N 20°33' W 086°59'1 0.6
2017-Apr-19 19:19N 20°33' W 086°60'310.9
2017-Apr-19 19:00N 20°31' W 086°57'4 8.9
2017-Apr-19 18:31N 20°34' W 087°01'1 1.1
2017-Apr-19 17:28N 20°35' W 087°01'511.9
2017-Apr-19 17:01N 20°31' W 086°57'3 1.4
2017-Apr-19 15:15N 20°32' W 086°59'310.9
2017-Apr-19 15:01N 20°31' W 086°57'2 1.3
2017-Apr-19 13:16N 20°32' W 086°59'2 9.0
2017-Apr-19 13:00N 20°31' W 086°57'0 0.1
2017-Apr-19 12:30N 20°31' W 086°57'0 0.0
2017-Apr-19 02:09N 20°31' W 086°57'0 0.8
2017-Apr-19 02:00N 20°31' W 086°57'2 4.0
2017-Apr-19 01:31N 20°32' W 086°58'0 0.2
2017-Apr-19 00:15N 20°32' W 086°58'2 8.8
2017-Apr-19 00:01N 20°31' W 086°57'3 5.4
2017-Apr-18 23:30N 20°33' W 086°59'1 1.0
2017-Apr-18 22:15N 20°32' W 086°58'2 6.6
2017-Apr-18 22:01N 20°31' W 086°57'0 0.0
2017-Apr-18 21:31N 20°31' W 086°57'0 0.0
2017-Apr-18 21:00N 20°31' W 086°57'2 3.5
2017-Apr-18 20:30N 20°32' W 086°58'0 0.2
2017-Apr-18 19:13N 20°32' W 086°58'2 7.8
2017-Apr-18 19:00N 20°31' W 086°57'2 1.1
2017-Apr-18 17:15N 20°32' W 086°59'2 7.9
2017-Apr-18 17:00N 20°31' W 086°57'3 1.5
2017-Apr-18 15:18N 20°33' W 086°59'3 8.9
2017-Apr-18 15:00N 20°31' W 086°57'2 4.0
2017-Apr-18 14:30N 20°32' W 086°59'0 0.3
2017-Apr-18 13:15N 20°32' W 086°59'2 5.7
2017-Apr-18 12:50N 20°31' W 086°57'0 0.0
2017-Apr-18 02:26N 20°31' W 086°57'  
Track history (hours):
 
Tides and Currents Weather Stations Pressure Air Temp Water Temp Dewpoint Dewpoint Depression Visibility Wind Speed Wind Dir Waves Ship Positions

Mexico V

Last reported at 2017-Apr-28 02:19 UTC. Time now 2017-Apr-28 10:21 UTC.
Position N 20°31' W 086°57'.

Length 40 m; draft 1.5 m.

Type: Ship. MMSI: 345110005.

Date/timePositionNaut miles runAvg speedWind from/ knotsBaromVisibWave heightAir tempDewpointWater temp
2017-Apr-28 02:19N 20°31' W 086°57'0 0.1
2017-Apr-28 02:01N 20°31' W 086°57'2 4.1
2017-Apr-28 01:30N 20°32' W 086°58'1 1.0
2017-Apr-28 00:20N 20°33' W 086°60'310.2
2017-Apr-28 00:00N 20°31' W 086°57'2 4.8
2017-Apr-27 23:31N 20°32' W 086°59'2 1.4
2017-Apr-27 22:22N 20°34' W 086°60'411.1
2017-Apr-27 22:00N 20°31' W 086°57'0 0.0
2017-Apr-27 21:31N 20°31' W 086°57'1 1.9
2017-Apr-27 21:01N 20°30' W 086°58'3 5.8
2017-Apr-27 20:30N 20°32' W 087°00'2 1.9
2017-Apr-27 19:23N 20°34' W 087°00'511.8
2017-Apr-27 19:00N 20°31' W 086°57'0 0.3
2017-Apr-27 18:30N 20°31' W 086°57'0 0.0
2017-Apr-27 18:00N 20°31' W 086°57'0 0.4
2017-Apr-27 17:31N 20°31' W 086°57'0 0.1
2017-Apr-27 17:00N 20°31' W 086°57'4 7.3
2017-Apr-27 16:31N 20°34' W 086°59'0 0.3
2017-Apr-27 15:20N 20°34' W 086°60'411.8
2017-Apr-27 15:00N 20°31' W 086°57'3 6.3
2017-Apr-27 14:30N 20°33' W 086°59'0 0.1
2017-Apr-27 13:19N 20°33' W 086°59'311.0
2017-Apr-27 13:00N 20°31' W 086°57'0 0.0
2017-Apr-27 12:31N 20°31' W 086°57'0 0.0
2017-Apr-27 02:45N 20°31' W 086°57'2 9.3
2017-Apr-27 02:31N 20°33' W 086°58'1 1.2
2017-Apr-27 01:19N 20°33' W 086°60'310.8
2017-Apr-27 01:00N 20°31' W 086°57'3 5.2
2017-Apr-27 00:31N 20°33' W 086°59'2 1.5
2017-Apr-26 23:21N 20°34' W 086°60'413.0
2017-Apr-26 23:01N 20°31' W 086°57'2 3.9
2017-Apr-26 22:30N 20°32' W 086°58'2 1.5
2017-Apr-26 21:20N 20°33' W 086°60'411.5
2017-Apr-26 21:01N 20°31' W 086°57'3 6.0
2017-Apr-26 20:30N 20°33' W 086°59'1 0.9
2017-Apr-26 19:17N 20°32' W 086°59'2 8.8
2017-Apr-26 19:00N 20°31' W 086°57'4 7.5
2017-Apr-26 18:31N 20°34' W 086°60'1 0.5
2017-Apr-26 17:24N 20°34' W 087°00'410.6
2017-Apr-26 17:00N 20°31' W 086°57'0 0.0
2017-Apr-26 16:30N 20°31' W 086°57'0 0.1
2017-Apr-26 16:01N 20°31' W 086°57'4 8.2
2017-Apr-26 15:30N 20°34' W 086°60'0 0.1
2017-Apr-26 14:23N 20°34' W 087°00'4 4.7
2017-Apr-26 13:31N 20°31' W 086°57'0 0.0
2017-Apr-26 03:11N 20°31' W 086°57'0 1.6
2017-Apr-26 03:01N 20°31' W 086°57'4 2.2
2017-Apr-26 01:21N 20°34' W 086°60'411.2
2017-Apr-26 01:00N 20°31' W 086°57'0 0.4
2017-Apr-26 00:31N 20°31' W 086°57'0 0.0
2017-Apr-26 00:00N 20°31' W 086°57'0 0.4
2017-Apr-25 23:31N 20°31' W 086°57'0 0.0
2017-Apr-25 23:00N 20°31' W 086°57'2 4.9
2017-Apr-25 22:31N 20°33' W 086°59'1 1.1
2017-Apr-25 21:22N 20°34' W 086°60'410.2
2017-Apr-25 21:01N 20°31' W 086°57'3 6.7
2017-Apr-25 20:30N 20°33' W 086°59'0 0.4
2017-Apr-25 19:23N 20°33' W 086°60'410.2
2017-Apr-25 19:00N 20°31' W 086°57'4 7.8
2017-Apr-25 18:30N 20°34' W 086°60'0 0.4
2017-Apr-25 17:22N 20°33' W 086°60'410.1
2017-Apr-25 17:01N 20°31' W 086°57'0 0.0
2017-Apr-25 16:31N 20°31' W 086°57'2 4.1
2017-Apr-25 16:01N 20°32' W 086°59'2 1.1
2017-Apr-25 14:01N 20°30' W 086°57'0 0.0
2017-Apr-25 13:30N 20°30' W 086°57'0 0.7
2017-Apr-25 13:00N 20°31' W 086°57'0 0.0
2017-Apr-25 12:31N 20°31' W 086°57'0 0.0
2017-Apr-25 12:01N 20°31' W 086°57'0 0.0
2017-Apr-25 02:42N 20°31' W 086°57'1 6.9
2017-Apr-25 02:31N 20°32' W 086°58'1 1.0
2017-Apr-25 01:16N 20°33' W 086°59'2 9.1
2017-Apr-25 01:00N 20°31' W 086°57'1 3.0
2017-Apr-25 00:31N 20°32' W 086°58'2 1.3
2017-Apr-24 23:20N 20°33' W 086°59'3 9.2
2017-Apr-24 23:00N 20°31' W 086°57'3 6.3
2017-Apr-24 22:31N 20°33' W 086°60'0 0.2
2017-Apr-24 21:18N 20°33' W 086°59'310.1
2017-Apr-24 21:01N 20°31' W 086°57'0 0.2
2017-Apr-24 20:30N 20°31' W 086°57'0 0.6
2017-Apr-24 20:01N 20°31' W 086°57'2 4.3
2017-Apr-24 19:30N 20°32' W 086°59'1 0.8
2017-Apr-24 18:17N 20°33' W 086°60'311.8
2017-Apr-24 18:00N 20°31' W 086°57'4 7.8
2017-Apr-24 17:31N 20°34' W 086°60'0 0.4
2017-Apr-24 16:17N 20°33' W 086°60'312.2
2017-Apr-24 16:00N 20°31' W 086°57'2 1.3
2017-Apr-24 14:17N 20°32' W 086°59'2 0.2
2017-Apr-24 02:46N 20°31' W 086°57'2 9.3
2017-Apr-24 02:31N 20°32' W 086°59'2 1.7
2017-Apr-24 01:22N 20°34' W 086°60'411.6
2017-Apr-24 01:00N 20°31' W 086°57'2 4.1
2017-Apr-24 00:30N 20°32' W 086°59'1 0.9
2017-Apr-23 23:19N 20°33' W 086°60'3 9.9
2017-Apr-23 23:01N 20°31' W 086°57'1 2.2
2017-Apr-23 22:31N 20°31' W 086°58'2 1.7
2017-Apr-23 21:20N 20°33' W 086°59'3 9.4
2017-Apr-23 21:00N 20°31' W 086°57'0 0.3
2017-Apr-23 20:31N 20°31' W 086°57'0 0.2
2017-Apr-23 20:00N 20°31' W 086°57'4 7.6
2017-Apr-23 19:30N 20°33' W 087°00'1 0.8
2017-Apr-23 18:20N 20°33' W 086°59'3 9.0
2017-Apr-23 18:00N 20°31' W 086°57'4 7.5
2017-Apr-23 17:31N 20°33' W 087°00'0 0.4
2017-Apr-23 16:21N 20°33' W 086°59'3 9.6
2017-Apr-23 16:00N 20°31' W 086°57'4 8.2
2017-Apr-23 15:30N 20°34' W 086°60'4 2.8
2017-Apr-23 14:00N 20°31' W 086°57'0 0.0
2017-Apr-23 13:30N 20°31' W 086°57'0 0.0
2017-Apr-23 13:00N 20°31' W 086°57'0 0.0
2017-Apr-23 02:23N 20°31' W 086°57'0 0.0
2017-Apr-23 02:00N 20°31' W 086°57'4 7.4
2017-Apr-23 01:31N 20°34' W 086°59'0 0.3
2017-Apr-23 00:22N 20°34' W 086°60'410.4
2017-Apr-23 00:01N 20°31' W 086°57'3 6.6
2017-Apr-22 23:30N 20°33' W 086°59'0 0.1
2017-Apr-22 22:19N 20°33' W 086°59'310.2
2017-Apr-22 22:00N 20°31' W 086°57'0 0.0
2017-Apr-22 21:31N 20°31' W 086°57'0 0.3
2017-Apr-22 21:00N 20°31' W 086°57'3 6.6
2017-Apr-22 20:30N 20°33' W 086°59'1 0.8
2017-Apr-22 19:21N 20°34' W 087°00'412.7
2017-Apr-22 19:00N 20°31' W 086°57'4 7.2
2017-Apr-22 18:30N 20°34' W 086°59'1 1.0
2017-Apr-22 17:22N 20°34' W 087°00'512.7
2017-Apr-22 17:01N 20°31' W 086°57'3 5.6
2017-Apr-22 16:31N 20°33' W 086°59'0 0.3
2017-Apr-22 15:15N 20°33' W 086°59'312.5
2017-Apr-22 15:00N 20°31' W 086°57'1 2.6
2017-Apr-22 14:31N 20°32' W 086°58'2 1.9
2017-Apr-22 13:19N 20°33' W 086°60'411.8
2017-Apr-22 13:01N 20°31' W 086°57'0 0.0
2017-Apr-22 02:29N 20°31' W 086°57'0 0.1
2017-Apr-22 02:00N 20°31' W 086°57'3 5.4
2017-Apr-22 01:30N 20°33' W 086°59'1 0.7
2017-Apr-22 00:20N 20°33' W 086°60'310.6
2017-Apr-22 00:01N 20°31' W 086°57'2 4.6
2017-Apr-21 23:31N 20°32' W 086°59'1 0.7
2017-Apr-21 22:19N 20°33' W 086°59'3 9.9
2017-Apr-21 22:00N 20°31' W 086°57'3 5.6
2017-Apr-21 21:30N 20°33' W 086°59'0 0.3
2017-Apr-21 20:18N 20°33' W 086°59'310.9
2017-Apr-21 20:00N 20°31' W 086°57'4 7.1
2017-Apr-21 19:31N 20°33' W 086°60'0 0.2
2017-Apr-21 18:31N 20°33' W 086°60'020.5
2017-Apr-21 18:30N 20°33' W 086°59'1 2.8
2017-Apr-21 18:01N 20°32' W 086°58'2 1.3
2017-Apr-21 16:22N 20°33' W 086°60'410.3
2017-Apr-21 16:00N 20°31' W 086°57'4 8.8
2017-Apr-21 15:31N 20°34' W 087°00'1 0.8
2017-Apr-21 14:25N 20°35' W 087°00'5 5.6
2017-Apr-21 13:30N 20°31' W 086°57'0 0.0
2017-Apr-21 13:00N 20°31' W 086°57'0 0.0
2017-Apr-21 02:21N 20°31' W 086°57'0 0.1
2017-Apr-21 02:01N 20°31' W 086°57'1 2.0
2017-Apr-21 01:31N 20°32' W 086°58'2 2.1
2017-Apr-21 00:20N 20°33' W 086°60'310.0
2017-Apr-21 00:01N 20°31' W 086°57'1 1.7
2017-Apr-20 23:31N 20°31' W 086°58'2 1.8
2017-Apr-20 22:20N 20°33' W 086°59'3 9.1
2017-Apr-20 22:00N 20°31' W 086°57'0 0.0
2017-Apr-20 21:31N 20°31' W 086°57'0 0.1
2017-Apr-20 21:01N 20°31' W 086°57'2 3.5
2017-Apr-20 20:30N 20°32' W 086°58'4 3.2
2017-Apr-20 19:24N 20°35' W 087°01'513.5
2017-Apr-20 19:00N 20°31' W 086°57'3 6.1
2017-Apr-20 18:31N 20°33' W 086°59'2 1.3
2017-Apr-20 17:22N 20°34' W 087°00'411.9
2017-Apr-20 17:01N 20°31' W 086°57'3 6.3
2017-Apr-20 16:31N 20°33' W 086°59'2 1.4
2017-Apr-20 15:23N 20°34' W 087°00'512.4
2017-Apr-20 15:00N 20°31' W 086°57'2 3.1
2017-Apr-20 14:31N 20°32' W 086°58'4 3.6
2017-Apr-20 13:24N 20°35' W 087°01'614.4
2017-Apr-20 13:01N 20°31' W 086°57'0 0.1
2017-Apr-20 12:31N 20°31' W 086°57'0 0.0
2017-Apr-20 02:16N 20°31' W 086°57'0 0.0
2017-Apr-20 02:00N 20°31' W 086°57'3 5.1
2017-Apr-20 01:31N 20°32' W 086°59'1 0.9
2017-Apr-20 00:21N 20°33' W 086°60'410.5
2017-Apr-20 00:00N 20°31' W 086°57'2 3.4
2017-Apr-19 23:31N 20°32' W 086°58'2 1.4
2017-Apr-19 22:19N 20°33' W 086°60'310.8
2017-Apr-19 22:00N 20°31' W 086°57'0 0.1
2017-Apr-19 21:30N 20°31' W 086°57'0 0.4
2017-Apr-19 21:00N 20°31' W 086°57'2 4.9
2017-Apr-19 20:31N 20°33' W 086°59'1 0.6
2017-Apr-19 19:19N 20°33' W 086°60'310.9
2017-Apr-19 19:00N 20°31' W 086°57'4 8.9
2017-Apr-19 18:31N 20°34' W 087°01'1 1.1
2017-Apr-19 17:28N 20°35' W 087°01'511.9
2017-Apr-19 17:01N 20°31' W 086°57'3 1.4
2017-Apr-19 15:15N 20°32' W 086°59'310.9
2017-Apr-19 15:01N 20°31' W 086°57'2 1.3
2017-Apr-19 13:16N 20°32' W 086°59'2 9.0
2017-Apr-19 13:00N 20°31' W 086°57'0 0.1
2017-Apr-19 12:30N 20°31' W 086°57'0 0.0
2017-Apr-19 02:09N 20°31' W 086°57'0 0.8
2017-Apr-19 02:00N 20°31' W 086°57'2 4.0
2017-Apr-19 01:31N 20°32' W 086°58'0 0.2
2017-Apr-19 00:15N 20°32' W 086°58'2 8.8
2017-Apr-19 00:01N 20°31' W 086°57'3 5.4
2017-Apr-18 23:30N 20°33' W 086°59'1 1.0
2017-Apr-18 22:15N 20°32' W 086°58'2 6.6
2017-Apr-18 22:01N 20°31' W 086°57'0 0.0
2017-Apr-18 21:31N 20°31' W 086°57'0 0.0
2017-Apr-18 21:00N 20°31' W 086°57'2 3.5
2017-Apr-18 20:30N 20°32' W 086°58'0 0.2
2017-Apr-18 19:13N 20°32' W 086°58'2 7.8
2017-Apr-18 19:00N 20°31' W 086°57'2 1.1
2017-Apr-18 17:15N 20°32' W 086°59'2 7.9
2017-Apr-18 17:00N 20°31' W 086°57'3 1.5
2017-Apr-18 15:18N 20°33' W 086°59'3 8.9
2017-Apr-18 15:00N 20°31' W 086°57'2 4.0
2017-Apr-18 14:30N 20°32' W 086°59'0 0.3
2017-Apr-18 13:15N 20°32' W 086°59'2 5.7
2017-Apr-18 12:50N 20°31' W 086°57'0 0.0
2017-Apr-18 02:26N 20°31' W 086°57'  

Dump ship's entire track history